Time;durP1;ratioP1;P1;durP2;ratioP2;P2;SDS_P1;SDS_P2;PMS_P1;PMS_P2;Temp;Humidity;BMP_temperature;BMP_pressure;BME280_temperature;BME280_humidity;BME280_pressure;Samples;Min_cycle;Max_cycle;Signal;HPM_P1;HPM_P2
2023/01/24 00:00:39;;;;;;;27.35;16.40;;;;;;;;;;4996968;28;20558;-78
2023/01/24 00:03:11;;;;;;;30.05;18.20;;;;;;;;;;4965902;28;20070;-78
2023/01/24 00:05:40;;;;;;;25.17;16.40;;;;;;;;;;4987324;28;20053;-78
2023/01/24 00:08:08;;;;;;;27.88;17.38;;;;;;;;;;4968393;28;20389;-78
2023/01/24 00:10:36;;;;;;;26.67;16.38;;;;;;;;;;4976140;28;20061;-79
2023/01/24 00:13:03;;;;;;;27.13;17.58;;;;;;;;;;4983817;28;20058;-81
2023/01/24 00:15:31;;;;;;;25.48;16.35;;;;;;;;;;4981004;28;20069;-82
2023/01/24 00:18:03;;;;;;;27.42;17.67;;;;;;;;;;4962654;28;20172;-77
2023/01/24 00:20:31;;;;;;;28.38;17.92;;;;;;;;;;4990642;28;20116;-77
2023/01/24 00:22:58;;;;;;;25.42;15.63;;;;;;;;;;4965866;28;20054;-77
2023/01/24 00:25:26;;;;;;;26.42;16.33;;;;;;;;;;4980361;28;20052;-81
2023/01/24 00:27:53;;;;;;;32.05;18.50;;;;;;;;;;4985608;28;20412;-79
2023/01/24 00:30:21;;;;;;;25.13;15.75;;;;;;;;;;4979345;28;20050;-77
2023/01/24 00:32:49;;;;;;;32.33;17.95;;;;;;;;;;4985504;28;20600;-78
2023/01/24 00:35:16;;;;;;;27.55;17.20;;;;;;;;;;4985681;28;20508;-80
2023/01/24 00:37:44;;;;;;;28.85;17.05;;;;;;;;;;4975735;28;20057;-78
2023/01/24 00:40:11;;;;;;;26.63;16.40;;;;;;;;;;4986386;28;20042;-77
2023/01/24 00:42:39;;;;;;;22.92;16.67;;;;;;;;;;4976114;28;20039;-79
2023/01/24 00:45:07;;;;;;;27.35;17.05;;;;;;;;;;4979009;28;20042;-83
2023/01/24 00:47:35;;;;;;;26.67;16.80;;;;;;;;;;4993197;28;20507;-81
2023/01/24 00:50:03;;;;;;;27.02;16.75;;;;;;;;;;4984768;28;20070;-79
2023/01/24 00:52:30;;;;;;;31.05;18.45;;;;;;;;;;4960130;28;20184;-77
2023/01/24 00:54:58;;;;;;;23.65;15.20;;;;;;;;;;4984065;28;20113;-77
2023/01/24 00:57:25;;;;;;;28.15;18.00;;;;;;;;;;4983314;28;20676;-80
2023/01/24 00:59:52;;;;;;;26.05;16.65;;;;;;;;;;4984173;28;20050;-79
2023/01/24 01:02:20;;;;;;;27.55;16.90;;;;;;;;;;4984390;28;20515;-79
2023/01/24 01:04:47;;;;;;;29.60;17.77;;;;;;;;;;4968445;28;20054;-77
2023/01/24 01:07:15;;;;;;;28.95;17.30;;;;;;;;;;4990072;28;20412;-77
2023/01/24 01:09:42;;;;;;;24.73;15.80;;;;;;;;;;4984390;28;20118;-82
2023/01/24 01:12:10;;;;;;;27.75;17.13;;;;;;;;;;4977604;28;20054;-78
2023/01/24 01:14:37;;;;;;;24.27;16.48;;;;;;;;;;4978010;28;20056;-77
2023/01/24 01:17:05;;;;;;;23.88;15.63;;;;;;;;;;4980762;28;20038;-79
2023/01/24 01:19:32;;;;;;;25.15;15.77;;;;;;;;;;4984995;28;20050;-81
2023/01/24 01:22:00;;;;;;;23.50;15.60;;;;;;;;;;4978413;28;20519;-78
2023/01/24 01:24:27;;;;;;;22.52;15.55;;;;;;;;;;4963897;28;20039;-84
2023/01/24 01:26:54;;;;;;;30.73;17.90;;;;;;;;;;4978500;28;20121;-77
2023/01/24 01:29:22;;;;;;;26.27;16.45;;;;;;;;;;4964530;28;20046;-78
2023/01/24 01:31:49;;;;;;;25.20;16.50;;;;;;;;;;4985138;28;20039;-80
2023/01/24 01:34:17;;;;;;;26.73;16.42;;;;;;;;;;4969988;28;20062;-80
2023/01/24 01:36:44;;;;;;;25.38;14.98;;;;;;;;;;4975992;28;20043;-78
2023/01/24 01:39:12;;;;;;;23.42;16.00;;;;;;;;;;4966105;28;20118;-82
2023/01/24 01:41:39;;;;;;;25.95;16.63;;;;;;;;;;4985479;28;20042;-77
2023/01/24 01:44:38;;;;;;;24.08;16.33;;;;;;;;;;4977735;28;20125;-79
2023/01/24 01:47:16;;;;;;;22.65;15.32;;;;;;;;;;4981334;28;20101;-78
2023/01/24 01:49:46;;;;;;;23.45;15.18;;;;;;;;;;4968752;28;20042;-77
2023/01/24 01:52:13;;;;;;;24.30;15.85;;;;;;;;;;4979183;28;20077;-78
2023/01/24 01:54:44;;;;;;;22.23;14.52;;;;;;;;;;4975090;28;20564;-82
2023/01/24 01:57:17;;;;;;;23.70;15.45;;;;;;;;;;4981953;28;20051;-79
2023/01/24 01:59:53;;;;;;;23.50;15.50;;;;;;;;;;4978948;28;20116;-82
2023/01/24 02:02:21;;;;;;;19.58;13.60;;;;;;;;;;4981290;28;20082;-78
2023/01/24 02:04:55;;;;;;;22.35;15.13;;;;;;;;;;4976384;28;20043;-77
2023/01/24 02:07:24;;;;;;;20.77;14.18;;;;;;;;;;4982831;28;20046;-82
2023/01/24 02:09:53;;;;;;;22.75;15.10;;;;;;;;;;4987909;28;20042;-78
2023/01/24 02:12:27;;;;;;;21.63;14.23;;;;;;;;;;4986545;28;20046;-83
2023/01/24 02:17:42;;;;;;;24.05;15.45;;;;;;;;;;4960899;28;20049;-77
2023/01/24 02:20:10;;;;;;;25.25;15.93;;;;;;;;;;4980643;28;20047;-77
2023/01/24 02:22:44;;;;;;;26.63;14.88;;;;;;;;;;4987705;28;20089;-82
2023/01/24 02:25:41;;;;;;;21.80;13.98;;;;;;;;;;4975185;28;20151;-77
2023/01/24 02:28:09;;;;;;;20.98;13.40;;;;;;;;;;4935306;28;20414;-81
2023/01/24 02:30:37;;;;;;;22.85;14.52;;;;;;;;;;4983378;28;20587;-79
2023/01/24 02:33:10;;;;;;;23.63;14.75;;;;;;;;;;4984602;28;20054;-80
2023/01/24 02:35:37;;;;;;;23.33;13.75;;;;;;;;;;4985904;28;20586;-78
2023/01/24 02:38:06;;;;;;;22.50;14.43;;;;;;;;;;4984659;28;20061;-77
2023/01/24 02:40:35;;;;;;;19.65;14.07;;;;;;;;;;4986170;28;20500;-80
2023/01/24 02:43:03;;;;;;;20.13;14.07;;;;;;;;;;4984591;28;20125;-81
2023/01/24 02:45:33;;;;;;;22.38;14.07;;;;;;;;;;4994321;28;20057;-77
2023/01/24 02:48:01;;;;;;;22.95;13.75;;;;;;;;;;4983102;28;20771;-77
2023/01/24 02:53:28;;;;;;;20.63;13.40;;;;;;;;;;4988457;28;20397;-82
2023/01/24 02:53:30;;;;;;;19.45;12.52;;;;;;;;;;5001275;28;20057;-81
2023/01/24 02:58:46;;;;;;;26.58;14.88;;;;;;;;;;4970869;28;20042;-77
2023/01/24 03:01:17;;;;;;;25.08;14.93;;;;;;;;;;4980131;28;20077;-79
2023/01/24 03:03:48;;;;;;;20.77;13.32;;;;;;;;;;4974236;28;20408;-81
2023/01/24 03:06:16;;;;;;;22.23;12.93;;;;;;;;;;4986689;28;20100;-81
2023/01/24 03:08:44;;;;;;;23.42;14.77;;;;;;;;;;4982017;28;20038;-79
2023/01/24 03:11:19;;;;;;;22.30;14.48;;;;;;;;;;4979421;28;20050;-77
2023/01/24 03:36:01;;;;;;;21.52;12.60;;;;;;;;;;4987029;28;20057;-82
2023/01/24 03:41:20;;;;;;;23.27;12.70;;;;;;;;;;4976385;28;20492;-84
2023/01/24 03:43:48;;;;;;;20.60;13.07;;;;;;;;;;4978755;28;20138;-82
2023/01/24 03:46:15;;;;;;;20.10;12.40;;;;;;;;;;4977136;28;20070;-80
2023/01/24 03:48:49;;;;;;;21.73;13.88;;;;;;;;;;4982421;28;20047;-78
2023/01/24 03:54:07;;;;;;;17.88;11.68;;;;;;;;;;4965967;28;20070;-82
2023/01/24 03:56:54;;;;;;;19.65;13.00;;;;;;;;;;4981147;28;20052;-79
2023/01/24 03:59:23;;;;;;;18.90;12.45;;;;;;;;;;4971969;28;20053;-80
2023/01/24 04:01:51;;;;;;;20.95;13.60;;;;;;;;;;4984377;28;20485;-78
2023/01/24 04:04:23;;;;;;;17.92;12.55;;;;;;;;;;4979903;28;20043;-76
2023/01/24 04:06:51;;;;;;;19.90;12.48;;;;;;;;;;4985157;28;20034;-80
2023/01/24 04:09:19;;;;;;;20.33;13.27;;;;;;;;;;4978215;28;20094;-80
2023/01/24 04:11:46;;;;;;;17.92;12.20;;;;;;;;;;4968903;28;20134;-78
2023/01/24 04:14:22;;;;;;;17.10;11.60;;;;;;;;;;4975842;28;20555;-84
2023/01/24 04:16:58;;;;;;;20.35;12.35;;;;;;;;;;4961624;28;20046;-78
2023/01/24 04:19:31;;;;;;;17.25;12.45;;;;;;;;;;4965306;28;20093;-78
2023/01/24 04:21:58;;;;;;;19.60;13.70;;;;;;;;;;4984766;28;20412;-79
2023/01/24 04:24:25;;;;;;;18.85;13.05;;;;;;;;;;4980461;28;20138;-78
2023/01/24 04:26:53;;;;;;;18.50;13.05;;;;;;;;;;4981826;28;20496;-79
2023/01/24 04:29:26;;;;;;;19.60;13.50;;;;;;;;;;4976986;28;20106;-81
2023/01/24 04:31:58;;;;;;;20.38;13.02;;;;;;;;;;4978499;28;20118;-82
2023/01/24 04:34:35;;;;;;;23.27;12.55;;;;;;;;;;4981300;28;20046;-80
2023/01/24 04:37:03;;;;;;;17.65;11.68;;;;;;;;;;4977850;28;20046;-80
2023/01/24 04:39:33;;;;;;;21.38;13.45;;;;;;;;;;4980353;28;20050;-82
2023/01/24 04:42:09;;;;;;;20.52;13.20;;;;;;;;;;4980030;28;20062;-80
2023/01/24 04:44:38;;;;;;;20.08;12.57;;;;;;;;;;4960254;28;20129;-78
2023/01/24 04:47:06;;;;;;;20.90;11.75;;;;;;;;;;4972752;28;20050;-83
2023/01/24 04:49:33;;;;;;;23.08;14.30;;;;;;;;;;4972110;28;20068;-80
2023/01/24 04:52:02;;;;;;;21.00;12.45;;;;;;;;;;4963031;28;20134;-80
2023/01/24 04:54:42;;;;;;;21.95;14.13;;;;;;;;;;4970989;28;20053;-83
2023/01/24 04:57:11;;;;;;;22.38;14.25;;;;;;;;;;4969013;28;20133;-78
2023/01/24 04:59:41;;;;;;;;;;;;;;;;;;4964652;28;20051;-80
2023/01/24 05:02:10;;;;;;;18.30;11.45;;;;;;;;;;4964983;28;19976;-78
2023/01/24 05:04:42;;;;;;;21.13;12.23;;;;;;;;;;4984154;28;20070;-78
2023/01/24 05:07:10;;;;;;;19.60;12.63;;;;;;;;;;4984561;28;20058;-81
2023/01/24 05:09:39;;;;;;;21.80;13.48;;;;;;;;;;4997196;28;20046;-84
2023/01/24 05:12:09;;;;;;;17.38;12.13;;;;;;;;;;5002826;28;20038;-83
2023/01/24 05:14:36;;;;;;;19.92;12.63;;;;;;;;;;4990059;28;20101;-78
2023/01/24 05:17:04;;;;;;;18.38;12.50;;;;;;;;;;4973999;28;20062;-80
2023/01/24 05:19:34;;;;;;;22.45;13.48;;;;;;;;;;4982199;28;20118;-80
2023/01/24 05:22:02;;;;;;;22.08;13.63;;;;;;;;;;4983301;28;20132;-79
2023/01/24 05:24:35;;;;;;;21.65;13.52;;;;;;;;;;4980589;28;20496;-82
2023/01/24 05:27:03;;;;;;;24.15;15.13;;;;;;;;;;4983049;28;20046;-81
2023/01/24 05:29:33;;;;;;;23.60;14.23;;;;;;;;;;4979491;28;20050;-78
2023/01/24 05:32:02;;;;;;;20.85;13.90;;;;;;;;;;4976589;28;21111;-82
2023/01/24 05:34:30;;;;;;;22.05;13.23;;;;;;;;;;4978319;28;20069;-83
2023/01/24 05:36:58;;;;;;;26.15;13.85;;;;;;;;;;4983833;28;20141;-78
2023/01/24 05:39:25;;;;;;;21.65;13.65;;;;;;;;;;4978957;28;20066;-78
2023/01/24 05:41:53;;;;;;;24.88;13.68;;;;;;;;;;4967557;28;20058;-80
2023/01/24 05:44:23;;;;;;;21.27;13.88;;;;;;;;;;4976867;28;20104;-79
2023/01/24 05:46:51;;;;;;;19.42;13.48;;;;;;;;;;4967626;28;20083;-77
2023/01/24 05:49:26;;;;;;;20.08;13.50;;;;;;;;;;4963975;28;20057;-81
2023/01/24 05:51:54;;;;;;;20.90;13.85;;;;;;;;;;4964704;28;20440;-77
2023/01/24 05:54:45;;;;;;;19.98;13.52;;;;;;;;;;4979002;28;20062;-77
2023/01/24 05:57:45;;;;;;;23.95;13.23;;;;;;;;;;4973287;28;20059;-77
2023/01/24 06:00:18;;;;;;;19.63;13.25;;;;;;;;;;4965793;28;20050;-79
2023/01/24 06:03:08;;;;;;;22.45;13.75;;;;;;;;;;4966416;28;20042;-79
2023/01/24 06:05:36;;;;;;;22.23;13.70;;;;;;;;;;4975130;28;20531;-82
2023/01/24 06:08:04;;;;;;;22.63;13.88;;;;;;;;;;4973230;28;20042;-83
2023/01/24 06:10:32;;;;;;;19.70;13.65;;;;;;;;;;4970922;28;20400;-82
2023/01/24 06:13:06;;;;;;;24.00;14.35;;;;;;;;;;4973695;28;20042;-81
2023/01/24 06:15:33;;;;;;;19.60;12.73;;;;;;;;;;4974679;28;20718;-78
2023/01/24 06:18:03;;;;;;;25.50;15.18;;;;;;;;;;4984921;28;20054;-78
2023/01/24 06:20:30;;;;;;;26.50;15.90;;;;;;;;;;4978717;28;20133;-78
2023/01/24 06:23:02;;;;;;;22.65;14.18;;;;;;;;;;4980727;28;20560;-78
2023/01/24 06:25:32;;;;;;;19.70;14.02;;;;;;;;;;4999896;28;20845;-82
2023/01/24 06:28:00;;;;;;;24.10;15.98;;;;;;;;;;4986887;28;20125;-79
2023/01/24 06:30:27;;;;;;;26.48;15.82;;;;;;;;;;4981019;28;20039;-84
2023/01/24 06:33:07;;;;;;;22.48;14.32;;;;;;;;;;4988969;28;20046;-77
2023/01/24 06:36:05;;;;;;;24.75;15.18;;;;;;;;;;4978785;28;20038;-80
2023/01/24 06:38:32;;;;;;;22.25;14.40;;;;;;;;;;4990770;28;20768;-78
2023/01/24 06:41:01;;;;;;;21.90;14.00;;;;;;;;;;4994169;28;20138;-77
2023/01/24 06:43:28;;;;;;;22.42;14.40;;;;;;;;;;4987472;28;20492;-81
2023/01/24 06:45:56;;;;;;;18.70;13.63;;;;;;;;;;4991563;28;20042;-77
2023/01/24 06:48:23;;;;;;;21.63;14.05;;;;;;;;;;4993059;28;20081;-77
2023/01/24 06:50:51;;;;;;;26.17;14.60;;;;;;;;;;4990604;28;20053;-80
2023/01/24 06:53:18;;;;;;;25.27;14.65;;;;;;;;;;4993182;28;20065;-77
2023/01/24 06:55:46;;;;;;;26.38;15.35;;;;;;;;;;4999459;28;20046;-84
2023/01/24 06:58:13;;;;;;;29.45;15.77;;;;;;;;;;5004777;28;20057;-83
2023/01/24 07:00:41;;;;;;;27.75;15.88;;;;;;;;;;4984445;28;20046;-77
2023/01/24 07:03:08;;;;;;;25.77;15.98;;;;;;;;;;4988688;28;20042;-77
2023/01/24 07:05:37;;;;;;;27.05;15.85;;;;;;;;;;4985395;28;20052;-77
2023/01/24 07:08:05;;;;;;;31.92;19.90;;;;;;;;;;4993920;28;20412;-78
2023/01/24 07:10:32;;;;;;;26.00;15.85;;;;;;;;;;4973117;28;20043;-77
2023/01/24 07:13:00;;;;;;;27.55;15.98;;;;;;;;;;4987320;28;20054;-83
2023/01/24 07:15:27;;;;;;;26.38;15.25;;;;;;;;;;4987925;28;20125;-77
2023/01/24 07:17:55;;;;;;;33.78;18.77;;;;;;;;;;4987233;28;20543;-77
2023/01/24 07:20:23;;;;;;;27.98;18.10;;;;;;;;;;4988571;28;20047;-77
2023/01/24 07:22:50;;;;;;;25.48;17.35;;;;;;;;;;4988969;28;20057;-83
2023/01/24 07:25:19;;;;;;;25.20;16.67;;;;;;;;;;4989611;28;20050;-77
2023/01/24 07:27:47;;;;;;;26.55;16.80;;;;;;;;;;4990320;28;20047;-78
2023/01/24 07:30:15;;;;;;;28.63;17.80;;;;;;;;;;4989872;28;20043;-83
2023/01/24 07:32:43;;;;;;;30.48;17.83;;;;;;;;;;4971901;28;20056;-82
2023/01/24 07:35:10;;;;;;;33.78;21.33;;;;;;;;;;4989403;28;20042;-77
2023/01/24 07:37:39;;;;;;;26.83;16.73;;;;;;;;;;4982650;28;20129;-77
2023/01/24 07:40:06;;;;;;;28.85;17.55;;;;;;;;;;4990201;28;20054;-77
2023/01/24 07:42:34;;;;;;;33.13;22.80;;;;;;;;;;4983210;28;20183;-77
2023/01/24 07:45:01;;;;;;;28.58;17.02;;;;;;;;;;4981797;28;20336;-81
2023/01/24 07:47:29;;;;;;;26.85;17.52;;;;;;;;;;4986418;28;20050;-80
2023/01/24 07:49:57;;;;;;;38.20;20.10;;;;;;;;;;4984243;28;20046;-77
2023/01/24 07:52:26;;;;;;;36.38;19.15;;;;;;;;;;4978274;28;20524;-80
2023/01/24 07:54:53;;;;;;;32.20;17.75;;;;;;;;;;4991074;28;20050;-79
2023/01/24 07:57:20;;;;;;;31.80;17.60;;;;;;;;;;4988086;28;20106;-79
2023/01/24 07:59:51;;;;;;;27.92;17.13;;;;;;;;;;4987415;28;20038;-76
2023/01/24 08:02:18;;;;;;;31.10;17.95;;;;;;;;;;4981433;28;20055;-80
2023/01/24 08:04:46;;;;;;;30.75;17.17;;;;;;;;;;4986307;28;20058;-77
2023/01/24 08:07:16;;;;;;;34.30;19.15;;;;;;;;;;4988632;28;20493;-80
2023/01/24 08:09:44;;;;;;;27.70;17.98;;;;;;;;;;4987546;28;20532;-81
2023/01/24 08:12:11;;;;;;;23.92;15.23;;;;;;;;;;4984824;28;20129;-81
2023/01/24 08:14:41;;;;;;;26.48;16.92;;;;;;;;;;4987520;28;20110;-77
2023/01/24 08:17:11;;;;;;;28.42;17.13;;;;;;;;;;4987648;28;20046;-77
2023/01/24 08:19:39;;;;;;;25.45;15.05;;;;;;;;;;4987113;28;20050;-77
2023/01/24 08:22:23;;;;;;;22.67;15.18;;;;;;;;;;4985982;28;20054;-78
2023/01/24 08:24:50;;;;;;;28.98;19.98;;;;;;;;;;4987359;28;20053;-79
2023/01/24 08:27:18;;;;;;;27.65;16.20;;;;;;;;;;4988206;28;20133;-80
2023/01/24 08:29:45;;;;;;;24.48;16.23;;;;;;;;;;4988916;28;20121;-77
2023/01/24 08:32:13;;;;;;;24.55;15.00;;;;;;;;;;4987921;28;20117;-77
2023/01/24 08:34:40;;;;;;;27.75;17.40;;;;;;;;;;4988876;28;20068;-84
2023/01/24 08:37:08;;;;;;;26.63;17.25;;;;;;;;;;4988035;28;20529;-77
2023/01/24 08:39:35;;;;;;;30.33;17.67;;;;;;;;;;4988464;28;20082;-80
2023/01/24 08:42:03;;;;;;;30.10;17.65;;;;;;;;;;4989681;28;20546;-79
2023/01/24 08:44:30;;;;;;;29.85;18.48;;;;;;;;;;5003643;28;20050;-82
2023/01/24 08:46:58;;;;;;;35.13;19.13;;;;;;;;;;5007355;28;20042;-78
2023/01/24 08:49:25;;;;;;;32.13;19.70;;;;;;;;;;4999932;28;20059;-80
2023/01/24 08:51:58;;;;;;;27.67;17.88;;;;;;;;;;4985032;28;20141;-76
2023/01/24 08:54:30;;;;;;;27.13;17.60;;;;;;;;;;4990914;28;20053;-77
2023/01/24 08:56:57;;;;;;;24.27;16.13;;;;;;;;;;4992479;28;20520;-79
2023/01/24 08:59:25;;;;;;;25.65;17.30;;;;;;;;;;4966466;28;20050;-77
2023/01/24 09:01:52;;;;;;;29.33;17.33;;;;;;;;;;4985636;28;20043;-79
2023/01/24 09:04:20;;;;;;;26.90;18.05;;;;;;;;;;4976305;28;20082;-81
2023/01/24 09:06:47;;;;;;;25.73;16.85;;;;;;;;;;4971298;28;20050;-76
2023/01/24 09:09:16;;;;;;;27.85;17.80;;;;;;;;;;4984674;28;20125;-78
2023/01/24 09:11:43;;;;;;;26.30;17.77;;;;;;;;;;4973531;28;20505;-82
2023/01/24 09:14:11;;;;;;;24.35;17.15;;;;;;;;;;4969373;28;20046;-76
2023/01/24 09:16:38;;;;;;;27.48;16.70;;;;;;;;;;4973410;28;20046;-76
2023/01/24 09:19:06;;;;;;;26.77;16.92;;;;;;;;;;4972507;28;20077;-79
2023/01/24 09:21:33;;;;;;;28.27;16.67;;;;;;;;;;4973591;28;20046;-77
2023/01/24 09:24:01;;;;;;;26.35;20.50;;;;;;;;;;4955648;28;20067;-77
2023/01/24 09:26:28;;;;;;;24.48;17.08;;;;;;;;;;4985766;28;20573;-77
2023/01/24 09:28:55;;;;;;;25.80;17.15;;;;;;;;;;4992515;28;20043;-77
2023/01/24 09:31:23;;;;;;;26.77;17.25;;;;;;;;;;4992512;28;20136;-79
2023/01/24 09:33:50;;;;;;;31.05;17.38;;;;;;;;;;4974929;28;20046;-76
2023/01/24 09:36:26;;;;;;;27.30;16.58;;;;;;;;;;4993025;28;20346;-76
2023/01/24 09:38:53;;;;;;;22.42;16.23;;;;;;;;;;4992574;28;20056;-81
2023/01/24 09:41:46;;;;;;;26.38;17.17;;;;;;;;;;4992472;28;20058;-76
2023/01/24 09:44:27;;;;;;;25.00;18.13;;;;;;;;;;4991928;28;20105;-77
2023/01/24 09:46:55;;;;;;;20.17;14.10;;;;;;;;;;4992249;28;20520;-80
2023/01/24 09:49:35;;;;;;;24.35;15.55;;;;;;;;;;4991699;28;20374;-81
2023/01/24 09:52:02;;;;;;;22.52;15.10;;;;;;;;;;4992266;28;20449;-78
2023/01/24 09:54:39;;;;;;;19.23;13.15;;;;;;;;;;4991952;28;20505;-77
2023/01/24 09:57:11;;;;;;;22.65;14.32;;;;;;;;;;4992466;28;20095;-79
2023/01/24 09:59:49;;;;;;;19.63;13.77;;;;;;;;;;4992220;28;20093;-80
2023/01/24 10:02:17;;;;;;;22.63;15.05;;;;;;;;;;4974704;28;20121;-77
2023/01/24 10:04:45;;;;;;;24.85;18.73;;;;;;;;;;4975317;28;20168;-79
2023/01/24 10:07:13;;;;;;;22.17;14.52;;;;;;;;;;4992091;28;20485;-79
2023/01/24 10:09:40;;;;;;;22.35;14.50;;;;;;;;;;4992201;28;20042;-80
2023/01/24 10:12:10;;;;;;;23.35;15.00;;;;;;;;;;4991627;28;20070;-76
2023/01/24 10:14:48;;;;;;;19.52;14.30;;;;;;;;;;4992102;28;20125;-76
2023/01/24 10:17:25;;;;;;;19.38;13.40;;;;;;;;;;4992074;28;20058;-76
2023/01/24 10:20:01;;;;;;;18.52;11.95;;;;;;;;;;4974781;28;20050;-76
2023/01/24 10:22:37;;;;;;;18.77;12.15;;;;;;;;;;4990981;28;20074;-76
2023/01/24 10:25:08;;;;;;;15.85;11.73;;;;;;;;;;4991440;28;20046;-76
2023/01/24 10:27:37;;;;;;;15.93;10.95;;;;;;;;;;4991899;28;20064;-79
2023/01/24 10:30:17;;;;;;;12.90;8.20;;;;;;;;;;4992744;28;20050;-77
2023/01/24 10:32:46;;;;;;;14.93;8.82;;;;;;;;;;4999575;28;20074;-83
2023/01/24 10:35:15;;;;;;;11.57;8.45;;;;;;;;;;5009427;28;20050;-80
2023/01/24 10:37:44;;;;;;;14.23;11.52;;;;;;;;;;5009533;28;20064;-83
2023/01/24 10:40:15;;;;;;;31.25;20.77;;;;;;;;;;4992003;28;20062;-76
2023/01/24 10:42:42;;;;;;;20.75;13.75;;;;;;;;;;4991541;28;20137;-77
2023/01/24 10:45:30;;;;;;;18.20;10.75;;;;;;;;;;4991703;28;20049;-76
2023/01/24 10:48:04;;;;;;;11.10;7.70;;;;;;;;;;4991375;28;20050;-77
2023/01/24 10:50:40;;;;;;;12.77;8.65;;;;;;;;;;4991972;28;20053;-77
2023/01/24 10:53:24;;;;;;;10.30;7.05;;;;;;;;;;4991110;28;20043;-77
2023/01/24 10:56:00;;;;;;;9.20;6.60;;;;;;;;;;4990911;28;20050;-79
2023/01/24 10:58:32;;;;;;;8.20;6.40;;;;;;;;;;4990764;28;20057;-77
2023/01/24 11:01:08;;;;;;;7.30;5.78;;;;;;;;;;4990938;28;20520;-81
2023/01/24 11:03:40;;;;;;;9.95;6.70;;;;;;;;;;4990586;28;20054;-81
2023/01/24 11:06:21;;;;;;;7.78;5.18;;;;;;;;;;4991281;28;20141;-80
2023/01/24 11:08:53;;;;;;;6.28;5.53;;;;;;;;;;4990723;28;20051;-79
2023/01/24 11:11:21;;;;;;;;;;;;;;;;;;4991328;28;20129;-79
2023/01/24 11:13:50;;;;;;;7.53;5.95;;;;;;;;;;4988493;28;19961;-81
2023/01/24 11:16:17;;;;;;;6.45;5.75;;;;;;;;;;4984832;28;20058;-77
2023/01/24 11:19:06;;;;;;;8.63;6.57;;;;;;;;;;4987214;28;20074;-77
2023/01/24 11:21:49;;;;;;;7.07;5.40;;;;;;;;;;4971543;28;20425;-77
2023/01/24 11:24:16;;;;;;;6.93;5.60;;;;;;;;;;4984638;28;20161;-81
2023/01/24 11:27:10;;;;;;;9.32;5.72;;;;;;;;;;4990551;28;20090;-77
2023/01/24 11:29:38;;;;;;;10.82;7.13;;;;;;;;;;4988070;28;20548;-77
2023/01/24 11:32:20;;;;;;;13.65;6.40;;;;;;;;;;4988668;28;20248;-82
2023/01/24 11:34:50;;;;;;;10.82;6.18;;;;;;;;;;4990729;28;20679;-78
2023/01/24 11:37:38;;;;;;;8.30;6.35;;;;;;;;;;4969758;28;20047;-79
2023/01/24 11:40:18;;;;;;;8.35;6.10;;;;;;;;;;4988030;28;20047;-80
2023/01/24 11:43:04;;;;;;;8.48;5.80;;;;;;;;;;4964202;28;20416;-76
2023/01/24 11:45:55;;;;;;;8.40;6.47;;;;;;;;;;4989667;28;20316;-77
2023/01/24 11:48:25;;;;;;;6.37;5.77;;;;;;;;;;4965999;28;20042;-77
2023/01/24 11:51:08;;;;;;;49.58;42.72;;;;;;;;;;4980472;28;20046;-77
2023/01/24 11:53:53;;;;;;;10.95;7.78;;;;;;;;;;4986543;28;20952;-81
2023/01/24 11:56:24;;;;;;;5.43;4.13;;;;;;;;;;4987050;28;20165;-82
2023/01/24 11:59:10;;;;;;;7.38;4.97;;;;;;;;;;4989308;28;20081;-77
2023/01/24 12:01:50;;;;;;;5.22;4.38;;;;;;;;;;4971452;28;20062;-79
2023/01/24 12:04:32;;;;;;;7.55;4.97;;;;;;;;;;4989222;28;20428;-78
2023/01/24 12:06:59;;;;;;;;;;;;;;;;;;4989764;28;20054;-78
2023/01/24 12:09:30;;;;;;;5.32;4.35;;;;;;;;;;4981872;28;20288;-77
2023/01/24 12:12:08;;;;;;;6.80;4.63;;;;;;;;;;4983729;28;20480;-80
2023/01/24 12:14:47;;;;;;;7.20;5.40;;;;;;;;;;4989555;28;20058;-77
2023/01/24 12:17:33;;;;;;;9.20;5.32;;;;;;;;;;4989666;28;20165;-77
2023/01/24 12:20:21;;;;;;;7.28;4.78;;;;;;;;;;4989196;28;20046;-80
2023/01/24 12:23:03;;;;;;;7.88;5.78;;;;;;;;;;4984382;28;20046;-84
2023/01/24 12:25:30;;;;;;;;;;;;;;;;;;5014089;28;20034;-84
2023/01/24 12:28:00;;;;;;;9.90;6.00;;;;;;;;;;5007130;28;19932;-80
2023/01/24 12:30:37;;;;;;;8.13;5.63;;;;;;;;;;4973057;28;20042;-77
2023/01/24 12:33:11;;;;;;;4.72;4.22;;;;;;;;;;4969932;28;20383;-82
2023/01/24 12:35:47;;;;;;;5.38;4.57;;;;;;;;;;4987753;28;20377;-81
2023/01/24 12:38:19;;;;;;;6.65;4.88;;;;;;;;;;4975416;28;20077;-77
2023/01/24 12:41:05;;;;;;;5.55;4.75;;;;;;;;;;4975423;28;20133;-81
2023/01/24 12:43:44;;;;;;;5.43;4.20;;;;;;;;;;4982032;28;20045;-82
2023/01/24 12:46:14;;;;;;;5.07;4.53;;;;;;;;;;4977188;28;20046;-78
2023/01/24 12:48:56;;;;;;;7.93;4.57;;;;;;;;;;4982013;28;20323;-80
2023/01/24 12:51:28;;;;;;;6.18;4.85;;;;;;;;;;4983619;28;20133;-82
2023/01/24 12:54:00;;;;;;;9.32;5.10;;;;;;;;;;4983937;28;20054;-78
2023/01/24 12:56:47;;;;;;;7.38;5.05;;;;;;;;;;4984105;28;20432;-78
2023/01/24 12:59:17;;;;;;;7.80;4.88;;;;;;;;;;4988233;28;20057;-77
2023/01/24 13:02:05;;;;;;;7.47;4.82;;;;;;;;;;4985785;28;20054;-82
2023/01/24 13:04:32;;;;;;;7.40;5.22;;;;;;;;;;4946087;28;20160;-78
2023/01/24 13:07:12;;;;;;;7.00;5.05;;;;;;;;;;4987027;28;20038;-82
2023/01/24 13:09:52;;;;;;;6.20;4.57;;;;;;;;;;4982741;28;20042;-79
2023/01/24 13:12:22;;;;;;;5.43;4.85;;;;;;;;;;4986562;28;20138;-79
2023/01/24 13:14:52;;;;;;;31.13;27.85;;;;;;;;;;4984682;28;20117;-81
2023/01/24 13:17:43;;;;;;;5.07;4.20;;;;;;;;;;4999159;23;20969;-80
2023/01/24 13:20:10;;;;;;;40.03;36.88;;;;;;;;;;4974334;28;20136;-83
2023/01/24 13:22:46;;;;;;;5.22;4.63;;;;;;;;;;4997524;28;20038;-82
2023/01/24 13:25:19;;;;;;;6.05;4.65;;;;;;;;;;4977150;28;20417;-81
2023/01/24 13:27:46;;;;;;;6.88;5.70;;;;;;;;;;4992935;28;20117;-81
2023/01/24 13:30:18;;;;;;;6.80;5.28;;;;;;;;;;4978874;28;20050;-82
2023/01/24 13:32:46;;;;;;;7.05;5.40;;;;;;;;;;5014379;28;20636;-79
2023/01/24 13:35:20;;;;;;;7.10;5.40;;;;;;;;;;5003073;28;20423;-82
2023/01/24 13:37:52;;;;;;;7.97;4.85;;;;;;;;;;4974469;28;20065;-82
2023/01/24 13:40:22;;;;;;;5.97;4.68;;;;;;;;;;4991009;28;20145;-82
2023/01/24 13:42:50;;;;;;;29.23;26.65;;;;;;;;;;4992533;28;20062;-81
2023/01/24 13:45:28;;;;;;;17.83;15.95;;;;;;;;;;4993750;28;20129;-82
2023/01/24 13:47:57;;;;;;;7.60;5.28;;;;;;;;;;4991484;28;20069;-82
2023/01/24 13:50:29;;;;;;;5.93;4.55;;;;;;;;;;4993306;28;20039;-82
2023/01/24 13:52:57;;;;;;;6.55;5.00;;;;;;;;;;4993251;28;20046;-84
2023/01/24 13:55:25;;;;;;;6.63;5.35;;;;;;;;;;4999790;28;20050;-82
2023/01/24 13:58:07;;;;;;;7.70;6.60;;;;;;;;;;5004658;28;20050;-82
2023/01/24 14:00:45;;;;;;;10.50;6.93;;;;;;;;;;4997790;28;20054;-83
2023/01/24 14:03:22;;;;;;;10.63;7.05;;;;;;;;;;4979201;28;20058;-83
2023/01/24 14:05:54;;;;;;;10.80;7.00;;;;;;;;;;4979909;28;20042;-82
2023/01/24 14:08:22;;;;;;;8.23;7.03;;;;;;;;;;5000370;28;20316;-82
2023/01/24 14:10:53;;;;;;;9.90;7.57;;;;;;;;;;5004933;28;20064;-83
2023/01/24 14:13:40;;;;;;;10.10;7.15;;;;;;;;;;5001894;28;20516;-83
2023/01/24 14:16:11;;;;;;;9.70;6.65;;;;;;;;;;4983047;28;20078;-83
2023/01/24 14:18:50;;;;;;;31.52;24.33;;;;;;;;;;4997366;28;20053;-83
2023/01/24 14:21:19;;;;;;;7.90;6.47;;;;;;;;;;4974288;28;20144;-82
2023/01/24 14:24:13;;;;;;;8.80;6.22;;;;;;;;;;4975894;28;20108;-83
2023/01/24 14:26:43;;;;;;;9.38;6.63;;;;;;;;;;4995301;28;20097;-82
2023/01/24 14:29:16;;;;;;;7.40;5.25;;;;;;;;;;4996523;28;20167;-83
2023/01/24 14:31:45;;;;;;;10.77;6.40;;;;;;;;;;4979065;28;20035;-83
2023/01/24 14:34:26;;;;;;;8.40;6.47;;;;;;;;;;4976684;28;20042;-83
2023/01/24 14:37:00;;;;;;;8.25;5.72;;;;;;;;;;4993727;28;20504;-81
2023/01/24 14:39:28;;;;;;;7.97;6.45;;;;;;;;;;4992866;28;20574;-82
2023/01/24 14:41:59;;;;;;;9.10;5.38;;;;;;;;;;4996978;28;20133;-81
2023/01/24 14:44:38;;;;;;;6.15;4.88;;;;;;;;;;4976762;28;20145;-83
2023/01/24 14:47:16;;;;;;;7.45;6.05;;;;;;;;;;4995977;28;20050;-83
2023/01/24 14:49:54;;;;;;;6.25;5.65;;;;;;;;;;4977806;28;20066;-83
2023/01/24 14:52:23;;;;;;;6.45;5.60;;;;;;;;;;4977269;28;20566;-83
2023/01/24 14:54:57;;;;;;;7.57;5.43;;;;;;;;;;4979138;28;20519;-82
2023/01/24 14:57:32;;;;;;;6.82;5.75;;;;;;;;;;4978426;28;20050;-82
2023/01/24 15:00:00;;;;;;;7.70;5.65;;;;;;;;;;4996399;28;20050;-82
2023/01/24 15:02:27;;;;;;;16.73;15.00;;;;;;;;;;4977785;28;20054;-83
2023/01/24 15:04:55;;;;;;;6.80;5.43;;;;;;;;;;4994680;28;20057;-83
2023/01/24 15:07:22;;;;;;;5.68;4.88;;;;;;;;;;4976822;28;20060;-83
2023/01/24 15:09:50;;;;;;;7.35;6.03;;;;;;;;;;4979309;28;20129;-83
2023/01/24 15:12:20;;;;;;;7.30;5.45;;;;;;;;;;4995452;28;20050;-83
2023/01/24 15:14:51;;;;;;;7.38;6.57;;;;;;;;;;4995617;28;20052;-83
2023/01/24 15:17:21;;;;;;;10.50;7.30;;;;;;;;;;4979330;28;20054;-83
2023/01/24 15:19:56;;;;;;;11.95;8.68;;;;;;;;;;4974981;28;20101;-82
2023/01/24 15:22:24;;;;;;;7.73;5.90;;;;;;;;;;4995745;28;20638;-82
2023/01/24 15:24:53;;;;;;;5.90;5.30;;;;;;;;;;4995677;28;20301;-83